Allen AAF Airport (BIG)

 

Airport Diagram
Current Weather/Forecast (VFR Conditions)
METAR PABI 312153Z 11017KT 10SM SCT060 BKN110 BKN180 M03/M07 A2883 RMK AO2 PK WND 13031/2126 SLP795 T10281072
TAF TAF PABI 312200Z 3122/0204 11015KT 9999 SCT200 520005 QNH2876INS TEMPO 3122/3124 11035G45KT 530007 BECMG 0100/0101 09015G20KT 9999 SCT150 520005 QNH2873INS BECMG 0112/0113 11015KT 9999 SCT060 BKN080 QNH2870INS TX01/0100Z TNM20/0115Z FOR MIL USE ONLY

All Charts

Inbound Traffic (Arrivals)

No inbound traffic.


Outbound Traffic (Departures)

No outbound traffic.